Time;durP1;ratioP1;P1;durP2;ratioP2;P2;SDS_P1;SDS_P2;PMS_P1;PMS_P2;Temp;Humidity;BMP_temperature;BMP_pressure;BME280_temperature;BME280_humidity;BME280_pressure;Samples;Min_cycle;Max_cycle;Signal;HPM_P1;HPM_P2
2022/09/15 00:00:48;;;;;;;8.03;3.30;;;;;;;18.46;100.00;156105.81;5084552;28;20435;-85
2022/09/15 00:03:15;;;;;;;2.97;2.73;;;;;;;18.48;100.00;156111.09;5034711;28;20434;-85
2022/09/15 00:05:43;;;;;;;4.43;3.00;;;;;;;18.45;100.00;156103.22;5032362;28;20472;-84
2022/09/15 00:08:11;;;;;;;3.43;3.03;;;;;;;18.44;100.00;156100.59;5064116;28;20435;-84
2022/09/15 00:10:38;;;;;;;4.60;2.83;;;;;;;18.44;100.00;156100.59;5032212;28;20459;-84
2022/09/15 00:13:05;;;;;;;4.77;2.80;;;;;;;18.41;100.00;156094.09;5032632;28;20436;-85
2022/09/15 00:15:32;;;;;;;5.10;3.20;;;;;;;18.40;100.00;156090.22;5085766;28;20430;-85
2022/09/15 00:17:58;;;;;;;2.90;2.60;;;;;;;18.38;100.00;156084.97;5073048;28;20481;-85
2022/09/15 00:20:25;;;;;;;4.07;3.10;;;;;;;18.36;100.00;156079.75;5075099;28;20434;-85
2022/09/15 00:22:53;;;;;;;3.47;2.83;;;;;;;18.34;100.00;156074.56;5074959;28;20440;-84
2022/09/15 00:25:20;;;;;;;3.60;2.37;;;;;;;18.33;100.00;156071.94;5075526;28;20462;-85
2022/09/15 00:27:46;;;;;;;3.63;2.60;;;;;;;18.35;100.00;156078.44;5074584;28;20795;-84
2022/09/15 00:30:13;;;;;;;3.80;2.70;;;;;;;18.32;100.00;156069.38;5103698;28;20446;-85
2022/09/15 00:32:40;;;;;;;2.73;2.00;;;;;;;18.32;100.00;156070.63;5051116;28;20443;-84
2022/09/15 00:35:07;;;;;;;2.57;2.30;;;;;;;18.33;100.00;156073.25;5055862;28;20809;-84
2022/09/15 00:37:33;;;;;;;3.10;2.37;;;;;;;18.32;100.00;156069.38;5088118;28;20797;-84
2022/09/15 00:40:02;;;;;;;2.53;2.00;;;;;;;18.28;100.00;156060.22;5054590;28;20438;-84
2022/09/15 00:42:29;;;;;;;2.50;2.30;;;;;;;18.27;100.00;156058.91;5088707;28;20450;-84
2022/09/15 00:44:57;;;;;;;2.80;2.10;;;;;;;18.27;100.00;156057.59;5088035;28;20470;-84
2022/09/15 00:47:27;;;;;;;4.10;2.10;;;;;;;18.27;100.00;156057.59;5020778;28;20966;-84
2022/09/15 00:49:56;;;;;;;4.30;2.47;;;;;;;18.27;100.00;156056.34;5095152;28;20474;-84
2022/09/15 00:52:27;;;;;;;4.90;2.10;;;;;;;18.25;100.00;156052.41;5074229;28;20449;-84
2022/09/15 00:54:57;;;;;;;4.50;2.13;;;;;;;18.23;100.00;156047.22;5071605;28;20437;-84
2022/09/15 00:57:28;;;;;;;2.40;2.00;;;;;;;18.24;100.00;156049.84;5037118;28;20455;-84
2022/09/15 00:59:56;;;;;;;2.30;2.10;;;;;;;18.23;100.00;156048.53;5039306;28;20431;-84
2022/09/15 01:02:26;;;;;;;3.37;2.50;;;;;;;18.24;100.00;156051.09;5053083;28;20945;-84
2022/09/15 01:04:54;;;;;;;3.17;2.20;;;;;;;18.23;100.00;156048.53;5055166;28;20426;-84
2022/09/15 01:07:24;;;;;;;2.50;2.10;;;;;;;18.21;100.00;156043.28;5104742;28;20503;-84
2022/09/15 01:09:54;;;;;;;3.50;2.33;;;;;;;18.24;100.00;156051.09;5062296;28;20486;-84
2022/09/15 01:12:22;;;;;;;4.30;2.47;;;;;;;18.17;100.00;156032.88;5054989;28;20553;-84
2022/09/15 01:14:50;;;;;;;4.03;2.50;;;;;;;18.14;100.00;156025.06;5086798;28;20782;-84
2022/09/15 01:17:23;;;;;;;2.37;2.17;;;;;;;18.12;100.00;156018.56;5062036;28;20445;-84
2022/09/15 01:20:20;;;;;;;2.67;2.20;;;;;;;18.11;100.00;156015.94;5060824;28;20478;-84
2022/09/15 01:22:59;;;;;;;3.63;2.20;;;;;;;18.06;100.00;156004.22;5058962;28;20456;-84
2022/09/15 01:25:40;;;;;;;2.50;2.00;;;;;;;18.07;100.00;156006.84;5107600;28;20913;-84
2022/09/15 01:28:23;;;;;;;3.80;2.33;;;;;;;18.05;100.00;156001.66;5097612;28;20442;-84
2022/09/15 01:30:55;;;;;;;3.00;2.10;;;;;;;18.04;100.00;155999.03;5053095;28;20485;-84
2022/09/15 01:33:30;;;;;;;3.40;2.50;;;;;;;18.06;100.00;156004.22;5054917;28;20541;-84
2022/09/15 01:36:03;;;;;;;2.07;1.87;;;;;;;18.04;100.00;155999.03;5066413;28;20438;-84
2022/09/15 01:38:43;;;;;;;3.07;2.00;;;;;;;18.01;100.00;155991.22;5040777;28;20457;-84
2022/09/15 01:41:15;;;;;;;5.80;2.57;;;;;;;18.01;100.00;155991.22;5051964;28;20482;-84
2022/09/15 01:43:47;;;;;;;2.23;1.80;;;;;;;18.00;100.00;155988.59;5054402;28;20431;-84
2022/09/15 01:46:16;;;;;;;2.90;2.03;;;;;;;18.00;100.00;155988.59;5051946;28;20490;-83
2022/09/15 01:48:43;;;;;;;3.90;2.50;;;;;;;17.96;100.00;155978.19;5052711;28;20587;-84
2022/09/15 01:51:10;;;;;;;3.03;2.10;;;;;;;17.92;100.00;155967.78;5054548;28;20446;-84
2022/09/15 01:53:38;;;;;;;4.70;2.10;;;;;;;17.89;100.00;155958.66;5086261;28;20439;-84
2022/09/15 01:56:06;;;;;;;2.50;2.10;;;;;;;17.84;100.00;155946.97;5085054;28;20455;-83
2022/09/15 01:58:34;;;;;;;3.33;2.30;;;;;;;17.82;100.00;155941.72;5054763;28;20462;-83
2022/09/15 02:01:03;;;;;;;3.53;2.10;;;;;;;17.77;100.00;155927.38;5095869;28;20439;-83
2022/09/15 02:03:34;;;;;;;3.17;2.23;;;;;;;17.80;100.00;155935.22;5054108;28;20420;-83
2022/09/15 02:06:04;;;;;;;3.87;2.03;;;;;;;17.76;100.00;155924.81;5033965;28;20460;-83
2022/09/15 02:08:37;;;;;;;3.10;2.20;;;;;;;17.73;100.00;155918.31;5053802;28;20434;-83
2022/09/15 02:11:15;;;;;;;2.40;2.00;;;;;;;17.74;100.00;155920.88;5072226;28;20913;-83
2022/09/15 02:13:47;;;;;;;2.40;1.80;;;;;;;17.75;100.00;155923.50;5068742;28;20474;-83
2022/09/15 02:16:18;;;;;;;2.10;1.80;;;;;;;17.73;100.00;155917.00;5085622;28;20534;-83
2022/09/15 02:18:55;;;;;;;2.47;2.10;;;;;;;17.76;100.00;155924.81;5069058;28;20427;-83
2022/09/15 02:21:28;;;;;;;4.70;2.10;;;;;;;17.78;100.00;155930.00;5053863;28;20503;-83
2022/09/15 02:23:58;;;;;;;3.40;2.80;;;;;;;17.79;100.00;155932.63;5052287;28;20963;-83
2022/09/15 02:26:26;;;;;;;3.70;1.70;;;;;;;17.80;100.00;155935.22;5086053;28;20493;-83
2022/09/15 02:28:54;;;;;;;2.40;1.80;;;;;;;17.80;100.00;155936.53;5068444;28;20533;-83
2022/09/15 02:31:23;;;;;;;2.07;1.87;;;;;;;17.84;100.00;155946.97;5062511;28;20446;-83
2022/09/15 02:33:55;;;;;;;3.03;1.57;;;;;;;17.81;100.00;155937.84;5073230;28;20425;-83
2022/09/15 02:36:22;;;;;;;2.60;2.20;;;;;;;17.78;100.00;155930.00;5105815;28;20446;-83
2022/09/15 02:38:50;;;;;;;2.07;1.70;;;;;;;17.81;100.00;155939.16;5072107;28;20448;-83
2022/09/15 02:41:17;;;;;;;1.90;1.70;;;;;;;17.78;100.00;155931.31;5051649;28;20438;-84
2022/09/15 02:43:48;;;;;;;3.77;1.90;;;;;;;17.73;100.00;155918.31;5085527;28;20454;-83
2022/09/15 02:46:15;;;;;;;3.20;1.70;;;;;;;17.73;100.00;155918.31;5052866;28;20474;-84
2022/09/15 02:48:42;;;;;;;3.73;1.80;;;;;;;17.76;100.00;155926.13;5052445;28;20482;-84
2022/09/15 02:51:10;;;;;;;2.90;1.50;;;;;;;17.70;100.00;155910.50;5052925;28;20438;-83
2022/09/15 02:53:37;;;;;;;2.80;1.60;;;;;;;17.68;100.00;155905.28;5051601;28;20438;-83
2022/09/15 02:56:05;;;;;;;3.60;1.83;;;;;;;17.73;100.00;155918.31;5031510;28;21093;-83
2022/09/15 02:58:32;;;;;;;3.40;1.83;;;;;;;17.73;100.00;155918.31;5034629;28;20538;-83
2022/09/15 03:01:01;;;;;;;4.20;2.00;;;;;;;17.71;100.00;155913.13;5090041;28;20450;-83
2022/09/15 03:03:28;;;;;;;1.90;1.37;;;;;;;17.65;100.00;155897.47;5085071;28;20481;-83
2022/09/15 03:06:15;;;;;;;2.10;1.60;;;;;;;17.67;100.00;155901.38;5053185;28;20477;-83
2022/09/15 03:08:43;;;;;;;4.83;1.80;;;;;;;17.68;100.00;155905.28;5051082;28;20442;-84
2022/09/15 03:11:11;;;;;;;3.00;1.67;;;;;;;17.65;100.00;155897.47;5052271;28;20435;-84
2022/09/15 03:13:38;;;;;;;5.10;1.97;;;;;;;17.61;100.00;155887.03;5045388;28;20868;-83
2022/09/15 03:16:09;;;;;;;3.90;1.67;;;;;;;17.66;100.00;155900.06;5045439;28;20500;-84
2022/09/15 03:18:35;;;;;;;2.20;1.70;;;;;;;17.67;100.00;155901.38;5072233;28;20426;-83
2022/09/15 03:21:02;;;;;;;3.03;1.60;;;;;;;17.58;100.00;155879.22;5071060;28;20438;-83
2022/09/15 03:23:29;;;;;;;8.20;1.77;;;;;;;17.58;100.00;155879.22;5053938;28;20804;-83
2022/09/15 03:25:58;;;;;;;2.00;1.60;;;;;;;17.54;100.00;155868.84;5084350;28;20822;-83
2022/09/15 03:28:25;;;;;;;2.27;1.60;;;;;;;17.54;100.00;155868.84;5059905;28;20874;-83
2022/09/15 03:30:52;;;;;;;1.60;1.43;;;;;;;17.53;100.00;155866.22;5032320;28;20486;-83
2022/09/15 03:33:18;;;;;;;2.33;1.53;;;;;;;17.53;100.00;155866.22;5055513;28;20470;-83
2022/09/15 03:35:46;;;;;;;3.63;1.60;;;;;;;17.52;100.00;155864.91;5051772;28;20542;-83
2022/09/15 03:38:12;;;;;;;1.80;1.60;;;;;;;17.48;100.00;155853.16;5080445;28;20438;-84
2022/09/15 03:40:41;;;;;;;2.60;1.53;;;;;;;17.47;100.00;155851.84;5052434;28;20797;-84
2022/09/15 03:43:09;;;;;;;3.23;1.73;;;;;;;17.49;100.00;155855.78;5051761;28;20488;-84
2022/09/15 03:45:37;;;;;;;3.40;1.83;;;;;;;17.49;100.00;155857.09;5051412;28;20490;-83
2022/09/15 03:48:05;;;;;;;2.70;1.70;;;;;;;17.47;100.00;155850.56;5050535;28;20486;-83
2022/09/15 03:50:32;;;;;;;2.10;1.60;;;;;;;17.52;100.00;155864.91;5061607;28;20488;-83
2022/09/15 03:52:59;;;;;;;2.53;1.63;;;;;;;17.45;100.00;155846.63;5062134;28;20447;-83
2022/09/15 03:55:26;;;;;;;1.67;1.50;;;;;;;17.46;100.00;155847.94;5052731;28;20439;-83
2022/09/15 03:57:53;;;;;;;2.30;1.40;;;;;;;17.46;100.00;155847.94;5064246;28;20434;-83
2022/09/15 04:00:21;;;;;;;1.70;1.60;;;;;;;17.45;100.00;155845.34;5083507;28;20430;-83
2022/09/15 04:02:48;;;;;;;1.63;1.40;;;;;;;17.43;100.00;155840.13;5051795;28;20542;-83
2022/09/15 04:05:14;;;;;;;3.00;1.70;;;;;;;17.40;100.00;155832.31;5083948;28;20435;-83
2022/09/15 04:07:41;;;;;;;1.63;1.27;;;;;;;17.38;100.00;155827.13;5051561;28;20483;-84
2022/09/15 04:10:10;;;;;;;2.70;1.70;;;;;;;17.38;100.00;155828.44;5051669;28;20531;-83
2022/09/15 04:12:37;;;;;;;3.23;1.70;;;;;;;17.29;100.00;155803.72;5062820;28;20514;-83
2022/09/15 04:15:04;;;;;;;4.13;2.53;;;;;;;17.31;100.00;155808.91;5083607;28;20435;-84
2022/09/15 04:17:32;;;;;;;1.80;1.57;;;;;;;17.36;100.00;155823.25;5083463;28;20478;-83
2022/09/15 04:19:59;;;;;;;1.53;1.10;;;;;;;17.39;100.00;155829.75;5083553;28;20446;-83
2022/09/15 04:22:26;;;;;;;2.20;1.83;;;;;;;17.36;100.00;155821.94;5083614;28;20443;-84
2022/09/15 04:24:53;;;;;;;2.57;1.87;;;;;;;17.33;100.00;155815.44;5084333;28;20542;-83
2022/09/15 04:27:19;;;;;;;2.47;1.70;;;;;;;17.32;100.00;155811.50;5075546;28;20482;-75
2022/09/15 04:29:46;;;;;;;1.97;1.70;;;;;;;17.30;100.00;155806.28;5036698;28;20549;-75
2022/09/15 04:32:13;;;;;;;3.97;1.63;;;;;;;17.27;100.00;155798.47;5050361;28;20451;-75
2022/09/15 04:34:41;;;;;;;2.53;1.70;;;;;;;17.27;100.00;155799.78;5082923;28;20435;-75
2022/09/15 04:37:07;;;;;;;2.27;1.83;;;;;;;17.26;100.00;155795.91;5041998;28;20436;-75
2022/09/15 04:39:34;;;;;;;6.53;1.90;;;;;;;17.29;100.00;155803.72;5074570;28;20465;-75
2022/09/15 04:42:04;;;;;;;1.90;1.50;;;;;;;17.27;100.00;155799.78;5050556;28;20790;-75
2022/09/15 04:44:34;;;;;;;2.23;1.43;;;;;;;17.25;100.00;155793.28;5049000;28;20489;-75
2022/09/15 04:47:00;;;;;;;4.80;1.67;;;;;;;17.26;100.00;155795.91;5038091;28;20466;-75
2022/09/15 04:49:27;;;;;;;3.83;1.60;;;;;;;17.22;100.00;155785.47;5070166;28;20466;-75
2022/09/15 04:51:55;;;;;;;2.67;1.60;;;;;;;17.24;100.00;155790.66;5052979;28;20443;-75
2022/09/15 04:54:22;;;;;;;1.60;1.50;;;;;;;17.21;100.00;155782.91;5050502;28;20419;-75
2022/09/15 04:56:49;;;;;;;2.93;1.60;;;;;;;17.22;100.00;155785.47;5081667;28;20450;-74
2022/09/15 04:59:16;;;;;;;2.60;1.63;;;;;;;17.17;100.00;155772.47;5050659;28;20439;-77
2022/09/15 05:01:43;;;;;;;1.80;1.40;;;;;;;17.12;100.00;155759.47;5045785;28;20475;-77
2022/09/15 05:04:10;;;;;;;1.70;1.50;;;;;;;17.16;100.00;155769.84;5039520;28;20434;-77
2022/09/15 05:06:37;;;;;;;2.47;1.70;;;;;;;17.15;100.00;155767.28;5054582;28;20546;-77
2022/09/15 05:09:07;;;;;;;1.80;1.40;;;;;;;17.14;100.00;155765.97;5085782;28;20438;-74
2022/09/15 05:11:34;;;;;;;2.37;1.60;;;;;;;17.15;100.00;155767.28;5086320;28;20446;-77
2022/09/15 05:14:00;;;;;;;2.10;1.53;;;;;;;17.14;100.00;155764.66;5053575;28;20763;-75
2022/09/15 05:16:28;;;;;;;2.30;1.77;;;;;;;17.16;100.00;155769.84;5041005;28;20793;-77
2022/09/15 05:18:57;;;;;;;2.67;1.40;;;;;;;17.18;100.00;155775.09;5033503;28;21104;-76
2022/09/15 05:21:26;;;;;;;2.13;1.70;;;;;;;17.18;100.00;155775.09;5076674;28;20990;-77
2022/09/15 05:23:53;;;;;;;1.83;1.43;;;;;;;17.20;100.00;155781.59;5053412;28;20841;-77
2022/09/15 05:26:24;;;;;;;2.40;1.60;;;;;;;17.23;100.00;155789.41;5048557;28;20483;-77
2022/09/15 05:28:51;;;;;;;2.43;1.63;;;;;;;17.21;100.00;155782.91;5015358;28;20931;-77
2022/09/15 05:31:19;;;;;;;2.70;1.50;;;;;;;17.21;100.00;155782.91;5046726;28;20950;-77
2022/09/15 05:33:46;;;;;;;2.90;1.93;;;;;;;17.29;100.00;155803.72;5056501;28;20834;-76
2022/09/15 05:36:14;;;;;;;3.07;1.80;;;;;;;17.21;100.00;155784.16;5048791;28;20454;-76
2022/09/15 05:38:41;;;;;;;1.60;1.47;;;;;;;17.25;100.00;155793.28;5060115;28;20436;-76
2022/09/15 05:41:10;;;;;;;3.00;1.63;;;;;;;17.23;100.00;155789.41;5061105;28;21037;-76
2022/09/15 05:43:39;;;;;;;1.90;1.43;;;;;;;17.26;100.00;155797.16;5071937;28;20456;-76
2022/09/15 05:46:07;;;;;;;2.00;1.53;;;;;;;17.27;100.00;155798.47;5056062;28;20473;-76
2022/09/15 05:48:34;;;;;;;2.20;1.83;;;;;;;17.25;100.00;155793.28;5052909;28;20471;-76
2022/09/15 05:51:03;;;;;;;1.90;1.30;;;;;;;17.27;100.00;155799.78;5051889;28;21013;-76
2022/09/15 05:53:31;;;;;;;2.83;1.87;;;;;;;17.25;100.00;155793.28;5085212;28;20471;-76
2022/09/15 05:55:58;;;;;;;2.53;1.30;;;;;;;17.25;100.00;155793.28;5053683;28;20435;-76
2022/09/15 05:58:26;;;;;;;1.43;1.20;;;;;;;17.31;100.00;155810.22;5086065;28;20451;-77
2022/09/15 06:00:54;;;;;;;2.60;1.40;;;;;;;17.30;100.00;155807.63;5056905;28;20796;-76
2022/09/15 06:03:22;;;;;;;4.70;1.90;;;;;;;17.30;100.00;155806.28;5106776;28;20442;-76
2022/09/15 06:05:49;;;;;;;2.20;1.60;;;;;;;17.30;100.00;155806.28;5104408;28;20450;-76
2022/09/15 06:08:16;;;;;;;2.87;1.40;;;;;;;17.31;100.00;155810.22;5105611;28;20470;-76
2022/09/15 06:10:43;;;;;;;1.17;1.00;;;;;;;17.34;100.00;155816.72;5104967;28;20438;-76
2022/09/15 06:13:09;;;;;;;2.47;1.33;;;;;;;17.37;100.00;155825.81;5063620;28;20499;-76
2022/09/15 06:15:36;;;;;;;1.30;1.10;;;;;;;17.37;100.00;155824.50;5079787;28;20895;-76
2022/09/15 06:18:05;;;;;;;4.80;1.53;;;;;;;17.36;100.00;155821.94;5051532;28;20980;-76
2022/09/15 06:20:31;;;;;;;4.07;1.30;;;;;;;17.39;100.00;155829.75;5059662;28;20830;-76
2022/09/15 06:23:01;;;;;;;3.97;1.50;;;;;;;17.39;100.00;155831.06;5104827;28;20445;-76
2022/09/15 06:25:28;;;;;;;1.60;1.30;;;;;;;17.42;100.00;155837.56;5105107;28;20532;-76
2022/09/15 06:27:54;;;;;;;3.90;1.40;;;;;;;17.45;100.00;155846.63;5071317;28;20572;-77
2022/09/15 06:30:21;;;;;;;2.00;1.10;;;;;;;17.48;100.00;155853.16;5068599;28;20438;-76
2022/09/15 06:32:48;;;;;;;4.03;1.40;;;;;;;17.50;100.00;155858.38;5073047;28;20468;-77
2022/09/15 06:35:19;;;;;;;2.23;1.23;;;;;;;17.52;100.00;155864.91;5104959;28;20948;-76
2022/09/15 06:37:46;;;;;;;1.57;1.10;;;;;;;17.52;100.00;155863.59;5063490;28;20462;-77
2022/09/15 06:40:14;;;;;;;3.33;1.80;;;;;;;17.54;100.00;155870.16;5056580;28;20447;-77
2022/09/15 06:42:44;;;;;;;2.27;1.10;;;;;;;17.56;100.00;155875.34;5052331;28;20905;-77
2022/09/15 06:45:11;;;;;;;1.70;1.43;;;;;;;17.52;100.00;155863.59;5067199;28;20817;-77
2022/09/15 06:47:38;;;;;;;2.00;1.33;;;;;;;17.55;100.00;155871.47;5051137;28;20604;-76
2022/09/15 06:50:05;;;;;;;5.00;1.40;;;;;;;17.57;100.00;155877.97;5082969;28;20815;-76
2022/09/15 06:52:33;;;;;;;2.60;1.10;;;;;;;17.60;100.00;155884.47;5084407;28;20889;-77
2022/09/15 06:55:00;;;;;;;2.43;1.33;;;;;;;17.60;100.00;155884.47;5035520;28;20448;-77
2022/09/15 06:57:27;;;;;;;2.50;1.40;;;;;;;17.60;100.00;155884.47;5074806;28;20459;-76
2022/09/15 06:59:54;;;;;;;1.70;1.20;;;;;;;17.58;100.00;155880.53;5075778;28;20522;-76
2022/09/15 07:02:20;;;;;;;2.10;1.33;;;;;;;17.58;100.00;155879.22;5082471;28;20549;-76
2022/09/15 07:04:47;;;;;;;1.90;1.60;;;;;;;17.54;100.00;155870.16;5069333;28;20445;-76
2022/09/15 07:07:13;;;;;;;1.90;1.20;;;;;;;17.48;100.00;155854.47;5063585;28;20818;-76
2022/09/15 07:09:41;;;;;;;4.13;1.53;;;;;;;17.48;100.00;155854.47;5083039;28;20473;-76
2022/09/15 07:12:08;;;;;;;1.80;1.10;;;;;;;17.46;100.00;155847.94;5051721;28;20438;-76
2022/09/15 07:14:35;;;;;;;2.30;1.20;;;;;;;17.47;100.00;155851.84;5083739;28;20454;-76
2022/09/15 07:17:02;;;;;;;1.50;1.00;;;;;;;17.45;100.00;155845.34;5050984;28;20470;-76
2022/09/15 07:19:28;;;;;;;2.07;1.20;;;;;;;17.45;100.00;155845.34;5050562;28;20470;-76
2022/09/15 07:21:55;;;;;;;1.60;1.13;;;;;;;17.45;100.00;155845.34;5049326;28;20748;-76
2022/09/15 07:24:21;;;;;;;4.97;1.27;;;;;;;17.45;100.00;155845.34;5050849;28;20885;-88
2022/09/15 07:26:50;;;;;;;2.73;1.40;;;;;;;17.45;100.00;155845.34;5050244;28;20662;-86
2022/09/15 07:29:17;;;;;;;2.43;1.00;;;;;;;17.44;100.00;155844.06;5081256;28;20443;-88
2022/09/15 07:31:44;;;;;;;2.70;1.47;;;;;;;17.47;100.00;155850.56;5074966;28;20457;-87
2022/09/15 07:34:10;;;;;;;2.17;1.20;;;;;;;17.49;100.00;155857.09;5048934;28;20443;-87
2022/09/15 07:36:37;;;;;;;1.60;1.23;;;;;;;17.53;100.00;155867.53;5052560;28;20454;-87
2022/09/15 07:39:04;;;;;;;2.10;1.23;;;;;;;17.55;100.00;155872.72;5053276;28;20431;-87
2022/09/15 07:41:31;;;;;;;2.30;1.30;;;;;;;17.55;100.00;155872.72;5045367;28;20884;-87
2022/09/15 07:44:00;;;;;;;3.40;1.30;;;;;;;17.64;100.00;155896.16;5048809;28;20447;-88
2022/09/15 07:46:29;;;;;;;2.57;1.40;;;;;;;17.61;100.00;155887.03;5085554;28;20882;-88
2022/09/15 07:48:56;;;;;;;2.10;1.60;;;;;;;17.62;100.00;155889.66;5033323;28;20588;-88
2022/09/15 07:51:23;;;;;;;1.90;1.57;;;;;;;17.58;100.00;155879.22;5032880;28;20431;-88
2022/09/15 07:53:49;;;;;;;1.53;1.13;;;;;;;17.58;100.00;155879.22;5033319;28;20431;-88
2022/09/15 07:56:17;;;;;;;2.90;1.53;;;;;;;17.53;100.00;155866.22;5033395;28;20432;-88
2022/09/15 07:58:43;;;;;;;1.37;0.97;;;;;;;17.54;100.00;155868.84;5049870;28;20462;-88
2022/09/15 08:01:13;;;;;;;1.63;1.40;;;;;;;17.51;100.00;155860.97;5032412;28;20462;-89
2022/09/15 08:03:41;;;;;;;2.90;1.27;;;;;;;17.51;100.00;155860.97;5065566;28;20499;-89
2022/09/15 08:06:07;;;;;;;1.37;1.00;;;;;;;17.51;100.00;155860.97;5068319;28;20447;-88
2022/09/15 08:08:34;;;;;;;1.67;1.23;;;;;;;17.54;100.00;155868.84;5053183;28;20811;-88
2022/09/15 08:11:05;;;;;;;3.80;1.93;;;;;;;17.54;100.00;155868.84;5085356;28;20438;-89
2022/09/15 08:13:32;;;;;;;1.90;1.27;;;;;;;17.52;100.00;155864.91;5068802;28;20438;-88
2022/09/15 08:16:05;;;;;;;2.10;1.07;;;;;;;17.52;100.00;155863.59;5052825;28;20454;-88
2022/09/15 08:18:33;;;;;;;2.10;1.73;;;;;;;17.54;100.00;155868.84;5072942;28;20447;-88
2022/09/15 08:21:00;;;;;;;1.63;1.40;;;;;;;17.55;100.00;155871.47;5073248;28;20556;-88
2022/09/15 08:23:26;;;;;;;2.17;1.47;;;;;;;17.53;100.00;155866.22;5073050;28;20438;-88
2022/09/15 08:25:53;;;;;;;2.03;1.43;;;;;;;17.52;100.00;155864.91;5043356;28;20444;-88
2022/09/15 08:28:19;;;;;;;3.00;1.70;;;;;;;17.52;100.00;155863.59;5033071;28;20855;-88
2022/09/15 08:30:46;;;;;;;3.40;1.33;;;;;;;17.52;100.00;155863.59;5032970;28;20431;-88
2022/09/15 08:33:13;;;;;;;2.40;1.60;;;;;;;17.52;100.00;155863.59;5033069;28;20519;-88
2022/09/15 08:35:41;;;;;;;2.63;1.60;;;;;;;17.60;100.00;155884.47;5065427;28;20444;-88
2022/09/15 08:38:07;;;;;;;1.50;1.30;;;;;;;17.55;100.00;155871.47;5085129;28;20449;-88
2022/09/15 08:40:37;;;;;;;1.90;1.60;;;;;;;17.53;100.00;155866.22;5055091;28;20488;-88
2022/09/15 08:43:14;;;;;;;3.07;1.53;;;;;;;17.55;100.00;155871.47;5051547;28;20494;-88
2022/09/15 08:45:52;;;;;;;3.90;2.50;;;;;;;17.60;100.00;155884.47;5058240;28;20525;-89
2022/09/15 08:48:26;;;;;;;2.30;1.43;;;;;;;17.63;100.00;155892.28;5069886;28;20470;-88
2022/09/15 08:51:23;;;;;;;3.10;1.50;;;;;;;17.68;100.00;155905.28;5060687;28;20465;-87
2022/09/15 08:53:54;;;;;;;2.63;1.30;;;;;;;17.73;100.00;155918.31;5035151;28;20482;-87
2022/09/15 08:56:21;;;;;;;3.30;1.70;;;;;;;17.77;100.00;155928.69;5078357;28;20478;-87
2022/09/15 08:58:48;;;;;;;3.27;1.73;;;;;;;17.80;100.00;155936.53;5055512;28;20435;-87
2022/09/15 09:01:23;;;;;;;2.17;1.63;;;;;;;17.85;100.00;155949.53;5058117;28;20477;-87
2022/09/15 09:04:05;;;;;;;2.10;1.87;;;;;;;17.87;100.00;155954.72;5048045;28;20454;-75
2022/09/15 09:06:37;;;;;;;1.93;1.67;;;;;;;17.88;100.00;155957.34;5045443;28;20460;-87
2022/09/15 09:09:10;;;;;;;2.03;1.57;;;;;;;17.92;100.00;155967.78;5053625;28;20470;-87
2022/09/15 09:11:47;;;;;;;2.17;1.60;;;;;;;17.96;100.00;155978.19;5033275;28;20432;-87
2022/09/15 09:14:19;;;;;;;3.00;1.20;;;;;;;17.98;100.00;155983.38;5049908;28;20431;-87
2022/09/15 09:17:08;;;;;;;1.63;1.30;;;;;;;18.04;100.00;155999.03;5072617;28;20456;-87
2022/09/15 09:19:49;;;;;;;4.17;1.80;;;;;;;18.07;100.00;156006.84;5050491;28;20445;-87
2022/09/15 09:22:21;;;;;;;2.30;1.30;;;;;;;18.09;100.00;156010.72;5051481;28;20459;-87
2022/09/15 09:24:51;;;;;;;1.70;1.60;;;;;;;18.13;100.00;156021.19;5084063;28;20454;-87
2022/09/15 09:27:21;;;;;;;2.87;1.90;;;;;;;18.19;100.00;156036.75;5085716;28;20454;-87
2022/09/15 09:29:50;;;;;;;2.00;1.53;;;;;;;18.19;100.00;156036.75;5085921;28;20549;-87
2022/09/15 09:32:19;;;;;;;2.53;1.80;;;;;;;18.21;100.00;156043.28;5086054;28;20446;-87
2022/09/15 09:34:54;;;;;;;1.77;1.30;;;;;;;18.30;100.00;156064.13;5086034;28;20443;-87
2022/09/15 09:37:23;;;;;;;2.90;1.10;;;;;;;18.33;100.00;156071.94;5055792;28;20462;-87
2022/09/15 09:39:50;;;;;;;3.23;1.43;;;;;;;18.38;100.00;156084.97;4999691;28;20440;-87
2022/09/15 09:42:18;;;;;;;2.33;1.43;;;;;;;18.43;100.00;156097.97;5083192;28;20505;-87
2022/09/15 09:44:46;;;;;;;1.50;1.07;;;;;;;18.45;100.00;156103.22;5045237;28;20439;-87
2022/09/15 09:47:13;;;;;;;1.50;1.13;;;;;;;18.49;100.00;156113.66;5088901;28;20454;-86
2022/09/15 09:49:42;;;;;;;3.20;1.50;;;;;;;18.42;100.00;156095.41;5088207;28;20484;-86
2022/09/15 09:52:09;;;;;;;3.00;1.30;;;;;;;18.40;100.00;156090.22;5086898;28;20451;-86
2022/09/15 09:54:37;;;;;;;1.83;1.10;;;;;;;18.39;100.00;156087.59;5053894;28;20493;-87
2022/09/15 09:57:28;;;;;;;1.70;1.47;;;;;;;18.39;100.00;156087.59;5085664;28;20565;-88
2022/09/15 09:59:55;;;;;;;2.23;1.20;;;;;;;18.40;100.00;156090.22;5085261;28;20911;-88
2022/09/15 10:02:24;;;;;;;1.80;1.33;;;;;;;18.39;100.00;156088.88;5085490;28;20467;-87
2022/09/15 10:04:52;;;;;;;1.90;1.50;;;;;;;18.44;100.00;156100.59;5047520;28;20451;-87
2022/09/15 10:07:21;;;;;;;1.87;1.53;;;;;;;18.51;100.00;156118.88;5035176;28;20456;-87
2022/09/15 10:09:52;;;;;;;1.83;1.20;;;;;;;18.51;100.00;156118.88;5073771;28;20481;-87
2022/09/15 10:12:23;;;;;;;1.57;1.20;;;;;;;18.39;100.00;156087.59;5054720;28;20446;-75
2022/09/15 10:14:51;;;;;;;1.10;0.73;;;;;;;18.09;100.00;156012.03;5105321;28;21008;-75
2022/09/15 10:17:20;;;;;;;0.97;0.60;;;;;;;17.99;100.00;155986.00;5055111;28;21001;-75
2022/09/15 10:19:48;;;;;;;1.63;1.10;;;;;;;18.00;100.00;155987.31;5046266;28;20446;-76
2022/09/15 10:22:22;;;;;;;1.50;0.70;;;;;;;17.85;100.00;155949.53;5032837;28;21037;-76
2022/09/15 10:24:50;;;;;;;1.43;0.67;;;;;;;17.72;100.00;155915.69;5051573;28;20541;-75
2022/09/15 10:27:26;;;;;;;1.53;0.37;;;;;;;17.58;100.00;155880.53;5063021;28;20455;-75
2022/09/15 10:29:53;;;;;;;1.37;0.60;;;;;;;17.50;100.00;155858.38;5045994;28;20470;-75
2022/09/15 10:32:25;;;;;;;2.70;0.43;;;;;;;17.37;100.00;155824.50;5065121;28;20442;-75
2022/09/15 10:35:00;;;;;;;1.17;0.53;;;;;;;17.21;100.00;155782.91;5087276;28;20430;-76
2022/09/15 10:37:31;;;;;;;1.00;0.50;;;;;;;17.16;100.00;155769.84;5035273;28;20478;-75
2022/09/15 10:40:01;;;;;;;2.13;0.67;;;;;;;17.09;100.00;155751.63;5043259;28;20439;-75
2022/09/15 10:42:44;;;;;;;1.90;0.73;;;;;;;17.00;100.00;155729.50;5046925;28;20471;-76
2022/09/15 10:45:18;;;;;;;1.00;0.40;;;;;;;17.08;100.00;155749.06;5058236;28;20876;-76
2022/09/15 10:47:59;;;;;;;0.87;0.40;;;;;;;16.94;100.00;155715.19;5089687;28;20454;-75
2022/09/15 10:50:29;;;;;;;0.80;0.30;;;;;;;16.94;100.00;155713.94;5056706;28;20443;-75
2022/09/15 10:53:09;;;;;;;0.97;0.70;;;;;;;16.81;100.00;155681.38;5084983;28;20462;-76
2022/09/15 10:55:44;;;;;;;4.03;1.50;;;;;;;16.72;100.00;155657.97;5091256;28;20430;-75
2022/09/15 10:58:29;;;;;;;1.57;1.27;;;;;;;16.45;100.00;155587.66;5052835;28;20450;-75
2022/09/15 11:01:03;;;;;;;2.10;1.90;;;;;;;16.26;100.00;155538.25;5050627;28;20469;-75
2022/09/15 11:03:53;;;;;;;2.37;2.00;;;;;;;16.17;100.00;155514.88;5049883;28;20514;-75
2022/09/15 11:06:25;;;;;;;2.47;2.27;;;;;;;16.05;100.00;155484.94;5047295;28;20452;-75
2022/09/15 11:09:04;;;;;;;3.67;2.60;;;;;;;16.06;100.00;155486.25;5039286;28;20471;-75
2022/09/15 11:11:43;;;;;;;3.20;2.90;;;;;;;16.01;100.00;155474.56;5084061;28;20455;-75
2022/09/15 11:14:22;;;;;;;3.40;3.07;;;;;;;15.99;100.00;155468.06;5031510;28;20474;-75
2022/09/15 11:16:58;;;;;;;3.50;3.20;;;;;;;15.93;100.00;155453.75;5048571;28;20446;-75
2022/09/15 11:19:51;;;;;;;3.00;2.60;;;;;;;15.74;100.00;155405.66;5050550;28;20430;-75
2022/09/15 11:22:19;;;;;;;3.40;2.87;;;;;;;15.80;100.00;155421.25;5050437;28;20447;-75
2022/09/15 11:24:48;;;;;;;3.70;3.23;;;;;;;15.78;100.00;155416.03;5065576;28;20968;-75
2022/09/15 11:27:20;;;;;;;3.90;3.10;;;;;;;15.65;100.00;155382.22;5081666;28;20466;-75